Time;durP1;ratioP1;P1;durP2;ratioP2;P2;SDS_P1;SDS_P2;PMS_P1;PMS_P2;Temp;Humidity;BMP_temperature;BMP_pressure;BME280_temperature;BME280_humidity;BME280_pressure;Samples;Min_cycle;Max_cycle;Signal;HPM_P1;HPM_P2
2022/05/09 00:01:48;;;;;;;;;;;17.40;50.10;;;;;;5010192;28;82682;-49
2022/05/09 00:04:14;;;;;;;;;;;17.40;50.10;;;;;;5010069;28;82164;-49
2022/05/09 00:06:40;;;;;;;;;;;17.30;50.10;;;;;;5010300;28;81768;-48
2022/05/09 00:09:05;;;;;;;;;;;17.40;50.20;;;;;;5009576;28;81860;-48
2022/05/09 00:11:32;;;;;;;;;;;17.30;50.00;;;;;;5010379;28;83548;-49
2022/05/09 00:13:57;;;;;;;;;;;17.30;50.00;;;;;;5013129;28;81819;-47
2022/05/09 00:16:23;;;;;;;;;;;17.30;49.90;;;;;;5010172;28;83862;-47
2022/05/09 00:18:49;;;;;;;;;;;17.20;50.00;;;;;;5010959;28;81245;-48
2022/05/09 00:21:15;;;;;;;;;;;17.20;50.00;;;;;;5010375;28;81906;-47
2022/05/09 00:23:41;;;;;;;;;;;17.20;50.00;;;;;;5010244;28;82407;-47
2022/05/09 00:26:07;;;;;;;;;;;17.20;50.00;;;;;;5009590;28;82754;-48
2022/05/09 00:28:33;;;;;;;;;;;17.20;50.10;;;;;;5010140;28;83934;-49
2022/05/09 00:30:59;;;;;;;;;;;17.10;50.00;;;;;;5009970;28;83393;-48
2022/05/09 00:33:25;;;;;;;;;;;17.20;50.00;;;;;;5010514;28;82066;-47
2022/05/09 00:35:51;;;;;;;;;;;17.10;50.00;;;;;;5012270;28;81810;-47
2022/05/09 00:38:17;;;;;;;;;;;17.20;50.00;;;;;;5010104;28;81936;-48
2022/05/09 00:41:28;;;;;;;;;;;17.10;50.10;;;;;;5010048;28;82878;-48
2022/05/09 00:43:30;;;;;;;;;;;17.10;50.10;;;;;;5010183;28;81514;-48
2022/05/09 00:45:56;;;;;;;;;;;17.00;50.00;;;;;;5009941;28;82033;-51
2022/05/09 00:48:21;;;;;;;;;;;17.00;50.10;;;;;;5009812;28;82397;-49
2022/05/09 00:50:47;;;;;;;;;;;17.00;50.10;;;;;;5009096;28;84383;-48
2022/05/09 00:53:13;;;;;;;;;;;17.00;50.20;;;;;;5009827;28;82155;-48
2022/05/09 00:55:44;;;;;;;;;;;17.00;50.10;;;;;;5012469;28;82075;-48
2022/05/09 00:58:15;;;;;;;;;;;16.90;50.10;;;;;;5009599;28;81894;-48
2022/05/09 01:00:44;;;;;;;;;;;17.00;50.10;;;;;;5009703;28;83209;-49
2022/05/09 01:03:13;;;;;;;;;;;16.90;50.10;;;;;;5009568;28;83360;-48
2022/05/09 01:05:42;;;;;;;;;;;16.90;50.00;;;;;;5009786;28;81887;-47
2022/05/09 01:08:08;;;;;;;;;;;16.90;50.20;;;;;;5010185;28;82896;-51
2022/05/09 01:10:36;;;;;;;;;;;16.80;50.10;;;;;;5009453;28;82454;-51
2022/05/09 01:13:03;;;;;;;;;;;16.80;50.10;;;;;;5009557;28;81834;-48
2022/05/09 01:15:30;;;;;;;;;;;16.80;50.10;;;;;;5008874;28;82821;-49
2022/05/09 01:17:55;;;;;;;;;;;16.80;50.10;;;;;;5011906;28;83529;-48
2022/05/09 01:20:21;;;;;;;;;;;16.70;50.10;;;;;;5009744;28;81838;-48
2022/05/09 01:22:46;;;;;;;;;;;16.70;50.10;;;;;;5009329;28;83838;-49
2022/05/09 01:25:13;;;;;;;;;;;16.70;50.10;;;;;;5009419;28;81958;-47
2022/05/09 01:27:40;;;;;;;;;;;16.70;50.10;;;;;;5009425;28;83283;-50
2022/05/09 01:30:06;;;;;;;;;;;16.70;50.10;;;;;;5009094;28;83507;-49
2022/05/09 01:32:37;;;;;;;;;;;16.70;50.10;;;;;;5010002;28;81228;-48
2022/05/09 01:35:06;;;;;;;;;;;16.60;49.90;;;;;;5009293;28;82066;-47
2022/05/09 01:37:32;;;;;;;;;;;16.60;50.10;;;;;;5009020;28;83671;-47
2022/05/09 01:39:59;;;;;;;;;;;16.60;50.10;;;;;;5011457;28;82710;-47
2022/05/09 01:42:25;;;;;;;;;;;16.60;50.10;;;;;;5009055;28;83506;-48
2022/05/09 01:44:51;;;;;;;;;;;16.50;50.00;;;;;;5009181;28;81870;-50
2022/05/09 01:50:01;;;;;;;;;;;16.50;49.90;;;;;;5009163;28;82055;-49
2022/05/09 01:52:27;;;;;;;;;;;16.50;50.10;;;;;;5009121;28;81751;-49
2022/05/09 01:54:53;;;;;;;;;;;16.50;50.00;;;;;;5009094;28;82166;-48
2022/05/09 01:57:19;;;;;;;;;;;16.40;50.00;;;;;;5009034;28;83146;-49
2022/05/09 01:59:44;;;;;;;;;;;16.40;50.00;;;;;;5009023;28;81887;-48
2022/05/09 02:02:12;;;;;;;;;;;16.40;50.10;;;;;;5011540;28;83388;-50
2022/05/09 02:04:40;;;;;;;;;;;16.30;50.00;;;;;;5008309;28;82869;-49
2022/05/09 02:07:09;;;;;;;;;;;16.30;49.90;;;;;;5008965;28;83809;-48
2022/05/09 02:09:37;;;;;;;;;;;16.30;50.10;;;;;;5008633;28;83470;-48
2022/05/09 02:12:02;;;;;;;;;;;16.30;50.00;;;;;;5009152;28;82205;-49
2022/05/09 02:14:28;;;;;;;;;;;16.30;50.00;;;;;;5008886;28;83804;-48
2022/05/09 02:16:53;;;;;;;;;;;16.30;50.10;;;;;;5008497;28;83512;-48
2022/05/09 02:19:19;;;;;;;;;;;16.20;50.00;;;;;;5008781;28;81843;-48
2022/05/09 02:21:45;;;;;;;;;;;16.20;50.00;;;;;;5009645;28;81812;-48
2022/05/09 02:24:10;;;;;;;;;;;16.20;50.10;;;;;;5011445;28;82338;-47
2022/05/09 02:26:37;;;;;;;;;;;16.20;50.00;;;;;;5008754;28;82897;-48
2022/05/09 02:29:03;;;;;;;;;;;16.20;49.90;;;;;;5009766;28;83533;-48
2022/05/09 02:31:30;;;;;;;;;;;16.20;50.00;;;;;;5012093;28;81702;-51
2022/05/09 02:33:56;;;;;;;;;;;16.10;49.90;;;;;;5011951;28;83214;-47
2022/05/09 02:36:21;;;;;;;;;;;16.10;49.90;;;;;;5012024;28;81880;-47
2022/05/09 02:38:47;;;;;;;;;;;16.00;50.00;;;;;;5011819;28;81849;-50
2022/05/09 02:41:13;;;;;;;;;;;16.00;50.00;;;;;;5011927;28;82047;-47
2022/05/09 02:43:39;;;;;;;;;;;16.00;50.00;;;;;;5011666;28;83172;-47
2022/05/09 02:46:04;;;;;;;;;;;16.00;50.10;;;;;;5014846;28;81160;-47
2022/05/09 02:48:31;;;;;;;;;;;15.90;50.00;;;;;;5011675;28;83608;-47
2022/05/09 02:50:57;;;;;;;;;;;16.00;50.10;;;;;;5012100;28;81836;-48
2022/05/09 02:53:22;;;;;;;;;;;15.90;50.10;;;;;;5011114;28;82747;-47
2022/05/09 02:55:48;;;;;;;;;;;15.90;50.00;;;;;;5011130;28;82720;-49
2022/05/09 02:58:14;;;;;;;;;;;15.90;50.00;;;;;;5011654;28;81821;-50
2022/05/09 03:00:40;;;;;;;;;;;15.90;50.00;;;;;;5011075;28;82454;-48
2022/05/09 03:05:50;;;;;;;;;;;15.90;50.00;;;;;;5014532;28;81919;-51
2022/05/09 03:08:17;;;;;;;;;;;15.80;50.00;;;;;;5011191;28;82373;-47
2022/05/09 03:10:43;;;;;;;;;;;15.80;50.00;;;;;;5011957;28;81283;-47
2022/05/09 03:13:09;;;;;;;;;;;15.80;49.90;;;;;;5010823;28;82905;-47
2022/05/09 03:15:35;;;;;;;;;;;15.70;50.10;;;;;;5010958;28;82491;-48
2022/05/09 03:18:02;;;;;;;;;;;15.70;49.90;;;;;;5010462;28;82891;-48
2022/05/09 03:20:28;;;;;;;;;;;15.70;49.90;;;;;;5010677;28;82978;-48
2022/05/09 03:22:54;;;;;;;;;;;15.70;50.10;;;;;;5010539;28;82787;-50
2022/05/09 03:25:19;;;;;;;;;;;15.60;50.00;;;;;;5010608;28;81857;-48
2022/05/09 03:27:45;;;;;;;;;;;15.60;50.00;;;;;;5013334;28;81791;-48
2022/05/09 03:30:12;;;;;;;;;;;15.60;50.00;;;;;;5010982;28;82171;-47
2022/05/09 03:32:39;;;;;;;;;;;15.60;50.00;;;;;;5010532;28;83442;-47
2022/05/09 03:35:06;;;;;;;;;;;15.60;50.00;;;;;;5010878;28;81995;-48
2022/05/09 03:37:31;;;;;;;;;;;15.60;49.90;;;;;;5010452;28;81840;-49
2022/05/09 03:39:57;;;;;;;;;;;15.60;50.10;;;;;;5010698;28;81938;-47
2022/05/09 03:42:23;;;;;;;;;;;15.50;50.00;;;;;;5009299;28;84577;-47
2022/05/09 03:44:49;;;;;;;;;;;15.50;50.10;;;;;;5010317;28;81856;-47
2022/05/09 03:47:15;;;;;;;;;;;15.40;50.00;;;;;;5010368;28;82041;-47
2022/05/09 03:49:40;;;;;;;;;;;15.40;50.10;;;;;;5012727;28;83553;-48
2022/05/09 03:52:06;;;;;;;;;;;15.50;50.10;;;;;;5010426;28;81847;-47
2022/05/09 03:54:31;;;;;;;;;;;15.40;50.00;;;;;;5009883;28;82426;-47
2022/05/09 03:56:57;;;;;;;;;;;15.40;49.90;;;;;;5009785;28;81924;-48
2022/05/09 03:59:22;;;;;;;;;;;15.40;50.00;;;;;;5010871;28;82107;-48
2022/05/09 04:01:48;;;;;;;;;;;15.40;50.00;;;;;;5009994;28;83764;-48
2022/05/09 04:04:14;;;;;;;;;;;15.40;50.20;;;;;;5009980;28;81897;-48
2022/05/09 04:06:40;;;;;;;;;;;15.30;50.00;;;;;;5009375;28;82737;-48
2022/05/09 04:09:05;;;;;;;;;;;15.30;50.20;;;;;;5009818;28;82416;-47
2022/05/09 04:11:31;;;;;;;;;;;15.30;50.00;;;;;;5012871;28;81867;-47
2022/05/09 04:13:56;;;;;;;;;;;15.20;50.10;;;;;;5010036;28;81829;-47
2022/05/09 04:19:06;;;;;;;;;;;15.20;50.00;;;;;;5010193;28;81764;-50
2022/05/09 04:21:32;;;;;;;;;;;15.20;50.20;;;;;;5008911;28;82640;-47
2022/05/09 04:23:58;;;;;;;;;;;15.20;50.10;;;;;;5010440;28;81366;-46
2022/05/09 04:26:24;;;;;;;;;;;15.20;50.20;;;;;;5009895;28;82087;-47
2022/05/09 04:28:50;;;;;;;;;;;15.10;50.20;;;;;;5009621;28;82922;-47
2022/05/09 04:31:16;;;;;;;;;;;15.10;50.10;;;;;;5009403;28;82680;-48
2022/05/09 04:33:42;;;;;;;;;;;15.10;50.30;;;;;;5012107;28;82969;-48
2022/05/09 04:36:08;;;;;;;;;;;15.10;50.30;;;;;;5009805;28;81788;-47
2022/05/09 04:38:34;;;;;;;;;;;15.00;50.30;;;;;;5009565;28;82802;-46
2022/05/09 04:40:59;;;;;;;;;;;15.10;50.30;;;;;;5009535;28;81791;-47
2022/05/09 04:43:31;;;;;;;;;;;15.10;50.30;;;;;;5009370;28;81871;-47
2022/05/09 04:46:00;;;;;;;;;;;15.00;50.20;;;;;;5009409;28;83027;-48
2022/05/09 04:48:25;;;;;;;;;;;15.00;50.30;;;;;;5010381;28;81723;-47
2022/05/09 04:50:51;;;;;;;;;;;15.00;50.30;;;;;;5009145;28;81851;-47
2022/05/09 04:53:17;;;;;;;;;;;15.00;50.20;;;;;;5012333;28;83045;-47
2022/05/09 04:55:43;;;;;;;;;;;15.00;50.20;;;;;;5008970;28;83012;-47
2022/05/09 04:58:11;;;;;;;;;;;15.00;50.20;;;;;;5009559;28;82904;-47
2022/05/09 05:00:37;;;;;;;;;;;15.00;50.30;;;;;;5009523;28;83599;-47
2022/05/09 05:03:02;;;;;;;;;;;15.00;50.30;;;;;;5010045;28;81788;-47
2022/05/09 05:05:28;;;;;;;;;;;15.00;50.30;;;;;;5009526;28;82856;-47
2022/05/09 05:07:54;;;;;;;;;;;15.00;50.40;;;;;;5009493;28;83253;-47
2022/05/09 05:10:20;;;;;;;;;;;15.00;50.30;;;;;;5009698;28;81863;-47
2022/05/09 05:12:46;;;;;;;;;;;15.00;50.30;;;;;;5009979;28;82123;-47
2022/05/09 05:15:12;;;;;;;;;;;14.90;50.40;;;;;;5012236;28;82442;-47
2022/05/09 05:17:38;;;;;;;;;;;15.00;50.40;;;;;;5009835;28;81787;-47
2022/05/09 05:20:05;;;;;;;;;;;15.00;50.40;;;;;;5008792;28;83356;-47
2022/05/09 05:22:34;;;;;;;;;;;15.00;50.30;;;;;;5009396;28;82197;-47
2022/05/09 05:25:00;;;;;;;;;;;15.00;50.40;;;;;;5009787;28;81918;-47
2022/05/09 05:27:26;;;;;;;;;;;15.00;50.50;;;;;;5009102;28;83574;-47
2022/05/09 05:29:55;;;;;;;;;;;14.90;50.30;;;;;;5009353;28;81870;-47
2022/05/09 05:32:25;;;;;;;;;;;15.00;50.40;;;;;;5009379;28;82922;-47
2022/05/09 05:34:51;;;;;;;;;;;15.00;50.40;;;;;;5009150;28;82608;-47
2022/05/09 05:37:17;;;;;;;;;;;15.00;50.40;;;;;;5012864;28;81136;-47
2022/05/09 05:39:44;;;;;;;;;;;15.00;50.40;;;;;;5009319;28;82019;-47
2022/05/09 05:42:10;;;;;;;;;;;15.00;50.40;;;;;;5009196;28;81986;-47
2022/05/09 05:44:37;;;;;;;;;;;15.00;50.50;;;;;;5008553;28;83297;-47
2022/05/09 05:47:07;;;;;;;;;;;15.00;50.50;;;;;;5008926;28;83433;-47
2022/05/09 05:49:33;;;;;;;;;;;15.00;50.50;;;;;;5009139;28;81868;-47
2022/05/09 05:52:03;;;;;;;;;;;15.00;50.60;;;;;;5009405;28;81851;-47
2022/05/09 05:54:31;;;;;;;;;;;15.00;50.60;;;;;;5008887;28;83446;-48
2022/05/09 05:56:57;;;;;;;;;;;15.00;50.60;;;;;;5008397;28;81972;-47
2022/05/09 05:59:25;;;;;;;;;;;14.90;50.60;;;;;;5011539;28;82389;-47
2022/05/09 06:01:51;;;;;;;;;;;14.90;50.80;;;;;;5009506;28;81046;-47
2022/05/09 06:04:17;;;;;;;;;;;14.90;50.80;;;;;;5011478;28;82273;-46
2022/05/09 06:06:43;;;;;;;;;;;15.00;50.80;;;;;;5012208;28;82645;-47
2022/05/09 06:09:09;;;;;;;;;;;15.00;50.80;;;;;;5012068;28;82671;-47
2022/05/09 06:11:35;;;;;;;;;;;14.90;50.80;;;;;;5012345;28;83952;-47
2022/05/09 06:14:04;;;;;;;;;;;14.90;50.90;;;;;;5012439;28;81951;-47
2022/05/09 06:16:30;;;;;;;;;;;14.90;51.00;;;;;;5012435;28;81898;-47
2022/05/09 06:18:55;;;;;;;;;;;14.90;51.00;;;;;;5012578;28;81815;-47
2022/05/09 06:21:22;;;;;;;;;;;14.90;51.20;;;;;;5014739;28;83635;-47
2022/05/09 06:23:49;;;;;;;;;;;14.90;51.10;;;;;;5012160;28;82251;-49
2022/05/09 06:26:14;;;;;;;;;;;14.90;51.10;;;;;;5012420;28;82913;-48
2022/05/09 06:28:43;;;;;;;;;;;14.90;51.10;;;;;;5012335;28;81773;-47
2022/05/09 06:31:09;;;;;;;;;;;14.90;51.10;;;;;;5012137;28;82841;-47
2022/05/09 06:33:34;;;;;;;;;;;14.90;51.10;;;;;;5011354;28;83400;-47
2022/05/09 06:36:03;;;;;;;;;;;14.90;51.10;;;;;;5011985;28;82084;-48
2022/05/09 06:38:30;;;;;;;;;;;14.90;51.10;;;;;;5012314;28;81726;-47
2022/05/09 06:40:56;;;;;;;;;;;14.90;51.10;;;;;;5011661;28;82553;-47
2022/05/09 06:43:23;;;;;;;;;;;14.90;51.20;;;;;;5014579;28;82216;-47
2022/05/09 06:45:52;;;;;;;;;;;14.90;51.20;;;;;;5011638;28;82619;-47
2022/05/09 06:48:18;;;;;;;;;;;14.90;51.20;;;;;;5011781;28;81816;-47
2022/05/09 06:50:44;;;;;;;;;;;14.90;51.30;;;;;;5012144;28;83529;-47
2022/05/09 06:53:11;;;;;;;;;;;14.90;51.30;;;;;;5011495;28;83541;-47
2022/05/09 06:55:36;;;;;;;;;;;14.90;51.30;;;;;;5011704;28;81848;-47
2022/05/09 06:58:12;;;;;;;;;;;14.90;51.30;;;;;;5010627;28;82897;-47
2022/05/09 07:00:38;;;;;;;;;;;14.90;51.30;;;;;;5011370;28;83455;-48
2022/05/09 07:03:04;;;;;;;;;;;15.00;51.30;;;;;;5014300;28;81842;-48
2022/05/09 07:05:30;;;;;;;;;;;15.00;51.40;;;;;;5011209;28;83388;-47
2022/05/09 07:07:56;;;;;;;;;;;15.00;51.40;;;;;;5011578;28;82057;-49
2022/05/09 07:10:21;;;;;;;;;;;15.00;51.30;;;;;;5011418;28;82539;-47
2022/05/09 07:12:49;;;;;;;;;;;15.00;51.30;;;;;;5011378;28;83432;-47
2022/05/09 07:15:16;;;;;;;;;;;15.00;51.30;;;;;;5011383;28;81027;-47
2022/05/09 07:17:42;;;;;;;;;;;15.00;51.30;;;;;;5011395;28;81819;-46
2022/05/09 07:20:08;;;;;;;;;;;15.00;51.40;;;;;;5011480;28;82271;-47
2022/05/09 07:22:34;;;;;;;;;;;15.00;51.40;;;;;;5010423;28;82879;-47
2022/05/09 07:24:59;;;;;;;;;;;15.00;51.40;;;;;;5013588;28;84053;-47
2022/05/09 07:27:26;;;;;;;;;;;15.00;51.40;;;;;;5011225;28;81844;-47
2022/05/09 07:29:52;;;;;;;;;;;15.00;51.40;;;;;;5011491;28;82329;-47
2022/05/09 07:32:18;;;;;;;;;;;15.10;51.40;;;;;;5010923;28;83238;-48
2022/05/09 07:34:44;;;;;;;;;;;15.10;51.40;;;;;;5011077;28;81717;-46
2022/05/09 07:37:10;;;;;;;;;;;15.10;51.40;;;;;;5011341;28;81784;-48
2022/05/09 07:39:35;;;;;;;;;;;15.10;51.40;;;;;;5011241;28;83240;-47
2022/05/09 07:42:01;;;;;;;;;;;15.10;51.50;;;;;;5011282;28;81823;-47
2022/05/09 07:44:27;;;;;;;;;;;15.10;51.50;;;;;;5011180;28;81808;-47
2022/05/09 07:46:52;;;;;;;;;;;15.00;51.50;;;;;;5012638;28;83529;-46
2022/05/09 07:49:18;;;;;;;;;;;15.10;51.60;;;;;;5011053;28;81886;-47
2022/05/09 07:51:43;;;;;;;;;;;15.10;51.60;;;;;;5009960;28;82943;-47
2022/05/09 07:54:09;;;;;;;;;;;15.10;51.60;;;;;;5010913;28;81953;-47
2022/05/09 07:56:34;;;;;;;;;;;15.10;51.60;;;;;;5010480;28;82052;-47
2022/05/09 07:59:02;;;;;;;;;;;15.10;51.60;;;;;;5010494;28;84216;-47
2022/05/09 08:01:27;;;;;;;;;;;15.10;51.60;;;;;;5010679;28;81909;-48
2022/05/09 08:03:53;;;;;;;;;;;15.10;51.60;;;;;;5011137;28;81884;-47
2022/05/09 08:06:19;;;;;;;;;;;15.10;51.50;;;;;;5010282;28;83418;-46
2022/05/09 08:08:46;;;;;;;;;;;15.10;51.60;;;;;;5013565;28;82000;-47
2022/05/09 08:11:12;;;;;;;;;;;15.10;51.50;;;;;;5009642;28;84593;-48
2022/05/09 08:13:38;;;;;;;;;;;15.10;51.50;;;;;;5010473;28;81941;-46
2022/05/09 08:16:04;;;;;;;;;;;15.10;51.40;;;;;;5010706;28;81796;-47
2022/05/09 08:18:31;;;;;;;;;;;15.10;51.40;;;;;;5010571;28;82403;-47
2022/05/09 08:20:59;;;;;;;;;;;15.10;51.30;;;;;;5010404;28;81832;-46
2022/05/09 08:23:25;;;;;;;;;;;15.20;51.50;;;;;;5010380;28;82072;-47
2022/05/09 08:25:51;;;;;;;;;;;15.20;51.30;;;;;;5009078;28;83468;-47
2022/05/09 08:28:18;;;;;;;;;;;15.20;51.30;;;;;;5010732;28;81206;-46
2022/05/09 08:30:44;;;;;;;;;;;15.20;51.20;;;;;;5012995;28;81897;-46
2022/05/09 08:33:15;;;;;;;;;;;15.20;50.90;;;;;;5009390;28;81884;-47
2022/05/09 08:35:43;;;;;;;;;;;15.20;51.00;;;;;;5009507;28;83116;-47
2022/05/09 08:38:09;;;;;;;;;;;15.20;51.30;;;;;;5009953;28;83502;-47
2022/05/09 08:40:37;;;;;;;;;;;15.20;50.70;;;;;;5010321;28;82111;-47
2022/05/09 08:43:17;;;;;;;;;;;15.30;51.00;;;;;;5010237;28;81836;-46
2022/05/09 08:45:50;;;;;;;;;;;15.30;50.90;;;;;;5009756;28;83453;-47
2022/05/09 08:48:24;;;;;;;;;;;15.30;50.90;;;;;;5010026;28;81897;-47
2022/05/09 08:50:49;;;;;;;;;;;15.30;50.90;;;;;;5010000;28;82090;-47
2022/05/09 08:53:19;;;;;;;;;;;15.30;50.90;;;;;;5012825;28;82780;-47
2022/05/09 08:55:45;;;;;;;;;;;15.30;50.70;;;;;;5009954;28;81814;-47
2022/05/09 08:58:31;;;;;;;;;;;15.40;51.10;;;;;;5009515;28;83423;-47
2022/05/09 09:00:59;;;;;;;;;;;15.40;50.80;;;;;;5009147;28;82730;-47
2022/05/09 09:03:28;;;;;;;;;;;15.40;50.70;;;;;;5009704;28;83368;-46
2022/05/09 09:05:57;;;;;;;;;;;15.40;50.80;;;;;;5009580;28;83624;-47
2022/05/09 09:08:22;;;;;;;;;;;15.40;50.70;;;;;;5009739;28;82077;-47
2022/05/09 09:11:03;;;;;;;;;;;15.40;50.30;;;;;;5009772;28;82036;-47
2022/05/09 09:13:47;;;;;;;;;;;15.40;50.40;;;;;;5012307;28;82517;-47
2022/05/09 09:16:15;;;;;;;;;;;15.40;49.80;;;;;;5009926;28;81849;-47
2022/05/09 09:18:42;;;;;;;;;;;15.50;50.50;;;;;;5009826;28;82768;-47
2022/05/09 09:21:19;;;;;;;;;;;15.50;50.30;;;;;;5009540;28;82079;-47
2022/05/09 09:23:54;;;;;;;;;;;15.50;50.50;;;;;;5009892;28;81783;-47
2022/05/09 09:26:32;;;;;;;;;;;15.50;49.80;;;;;;5008635;28;84510;-47
2022/05/09 09:29:07;;;;;;;;;;;15.50;49.40;;;;;;5009660;28;81836;-47
2022/05/09 09:31:36;;;;;;;;;;;15.50;49.90;;;;;;5009815;28;82079;-47
2022/05/09 09:34:14;;;;;;;;;;;15.60;50.00;;;;;;5009165;28;83542;-47
2022/05/09 09:36:43;;;;;;;;;;;15.60;50.10;;;;;;5012175;28;81712;-47
2022/05/09 09:39:15;;;;;;;;;;;15.60;49.60;;;;;;5013025;28;81815;-47
2022/05/09 09:41:40;;;;;;;;;;;15.60;48.70;;;;;;5012868;28;82011;-47
2022/05/09 09:44:12;;;;;;;;;;;15.60;49.10;;;;;;5013326;28;82089;-47
2022/05/09 09:46:58;;;;;;;;;;;15.70;49.30;;;;;;5012621;28;83799;-47
2022/05/09 09:49:24;;;;;;;;;;;15.60;48.10;;;;;;5001303;28;82150;-47
2022/05/09 09:51:50;;;;;;;;;;;15.70;49.70;;;;;;5012282;28;82760;-47
2022/05/09 09:54:17;;;;;;;;;;;15.70;49.40;;;;;;5012514;28;83358;-47
2022/05/09 09:56:43;;;;;;;;;;;15.70;48.40;;;;;;5012551;28;81934;-47
2022/05/09 09:59:09;;;;;;;;;;;15.70;49.70;;;;;;5015034;28;83004;-47
2022/05/09 10:01:35;;;;;;;;;;;15.80;49.10;;;;;;5012371;28;81981;-47
2022/05/09 10:04:11;;;;;;;;;;;15.80;47.30;;;;;;5012821;28;81815;-47
2022/05/09 10:06:56;;;;;;;;;;;15.80;48.30;;;;;;5008654;28;87688;-47
2022/05/09 10:09:22;;;;;;;;;;;15.80;48.60;;;;;;5009520;28;86232;-47
2022/05/09 10:11:47;;;;;;;;;;;15.80;48.50;;;;;;5008631;28;87053;-47
2022/05/09 10:14:30;;;;;;;;;;;15.90;48.70;;;;;;5008606;28;88368;-47
2022/05/09 10:17:11;;;;;;;;;;;15.90;48.40;;;;;;5008717;28;87817;-47
2022/05/09 10:19:37;;;;;;;;;;;15.90;48.50;;;;;;5009241;28;87726;-47
2022/05/09 10:24:57;;;;;;;;;;;15.90;46.90;;;;;;5009165;28;86818;-47
2022/05/09 10:27:31;;;;;;;;;;;15.90;45.70;;;;;;5008230;28;88712;-47
2022/05/09 10:30:08;;;;;;;;;;;15.90;48.60;;;;;;5008726;28;86892;-47
2022/05/09 10:32:55;;;;;;;;;;;16.00;48.00;;;;;;5008826;28;88069;-47
2022/05/09 10:35:26;;;;;;;;;;;16.00;47.50;;;;;;5008861;28;87955;-47
2022/05/09 10:37:54;;;;;;;;;;;16.10;47.80;;;;;;5008563;28;86843;-47
2022/05/09 10:40:26;;;;;;;;;;;16.10;47.70;;;;;;5008587;28;88202;-47
2022/05/09 10:43:10;;;;;;;;;;;16.10;47.50;;;;;;5007542;28;89558;-47
2022/05/09 10:45:41;;;;;;;;;;;16.10;47.70;;;;;;5011758;28;86842;-47
2022/05/09 10:48:06;;;;;;;;;;;16.10;47.50;;;;;;5008116;28;88551;-47
2022/05/09 10:50:42;;;;;;;;;;;16.10;47.70;;;;;;5007688;28;86805;-47
2022/05/09 10:53:31;;;;;;;;;;;16.10;46.20;;;;;;5008472;28;88021;-47
2022/05/09 10:56:05;;;;;;;;;;;16.20;47.90;;;;;;4999171;28;87616;-47
2022/05/09 10:58:46;;;;;;;;;;;16.20;47.80;;;;;;5008386;28;86819;-47
2022/05/09 11:01:16;;;;;;;;;;;16.20;46.40;;;;;;5009023;28;86804;-48
2022/05/09 11:03:44;;;;;;;;;;;16.20;47.40;;;;;;5007815;28;88478;-47
2022/05/09 11:06:16;;;;;;;;;;;16.30;46.90;;;;;;5008291;28;87282;-47
2022/05/09 11:08:45;;;;;;;;;;;16.30;46.40;;;;;;5009800;28;87924;-47
2022/05/09 11:11:27;;;;;;;;;;;16.30;46.20;;;;;;5008099;28;86847;-47
2022/05/09 11:13:53;;;;;;;;;;;16.40;47.00;;;;;;5008266;28;87552;-47
2022/05/09 11:16:19;;;;;;;;;;;16.30;44.50;;;;;;5007675;28;88898;-47
2022/05/09 11:18:51;;;;;;;;;;;16.30;46.40;;;;;;5008257;28;86927;-47
2022/05/09 11:21:35;;;;;;;;;;;16.40;46.00;;;;;;5008048;28;86883;-47
2022/05/09 11:24:08;;;;;;;;;;;16.40;45.80;;;;;;5007451;28;88454;-47
2022/05/09 11:26:49;;;;;;;;;;;16.40;44.40;;;;;;5008277;28;86217;-47
2022/05/09 11:29:24;;;;;;;;;;;16.50;45.00;;;;;;5010382;28;86889;-47
2022/05/09 11:31:53;;;;;;;;;;;16.50;43.40;;;;;;5007670;28;86852;-47
2022/05/09 11:34:45;;;;;;;;;;;16.50;44.70;;;;;;5007315;28;87884;-47
2022/05/09 11:37:29;;;;;;;;;;;16.50;45.40;;;;;;4983455;28;88438;-47
2022/05/09 11:40:02;;;;;;;;;;;16.60;44.90;;;;;;5007668;28;86836;-47
2022/05/09 11:45:35;;;;;;;;;;;16.60;44.50;;;;;;5007513;28;87170;-47
2022/05/09 11:48:03;;;;;;;;;;;16.60;45.70;;;;;;4996338;28;87177;-47
2022/05/09 11:50:29;;;;;;;;;;;16.70;45.40;;;;;;5007641;28;87025;-47
2022/05/09 11:52:57;;;;;;;;;;;16.70;46.00;;;;;;5010421;28;87566;-48
2022/05/09 11:55:24;;;;;;;;;;;16.70;45.30;;;;;;5007500;28;87353;-47
2022/05/09 11:58:00;;;;;;;;;;;16.80;44.40;;;;;;5006864;28;87855;-47
2022/05/09 12:00:25;;;;;;;;;;;16.80;44.90;;;;;;5006798;28;88007;-47
2022/05/09 12:02:55;;;;;;;;;;;16.80;45.20;;;;;;5007442;28;88872;-47
2022/05/09 12:05:41;;;;;;;;;;;16.80;44.70;;;;;;5006819;28;88574;-47
2022/05/09 12:08:43;;;;;;;;;;;16.90;45.10;;;;;;5006501;28;87098;-47
2022/05/09 12:11:22;;;;;;;;;;;16.90;44.10;;;;;;4945404;28;87318;-47
2022/05/09 12:13:50;;;;;;;;;;;16.90;44.30;;;;;;4999766;28;88499;-47
2022/05/09 12:16:37;;;;;;;;;;;16.90;45.00;;;;;;5010003;28;86746;-47
2022/05/09 12:19:04;;;;;;;;;;;16.90;44.10;;;;;;5007130;28;86932;-47
2022/05/09 12:21:37;;;;;;;;;;;17.00;45.00;;;;;;5007103;28;87321;-50
2022/05/09 12:24:16;;;;;;;;;;;17.00;45.10;;;;;;5006986;28;88311;-48
2022/05/09 12:26:43;;;;;;;;;;;17.10;44.20;;;;;;5005936;28;89393;-47
2022/05/09 12:29:12;;;;;;;;;;;17.10;44.40;;;;;;5007061;28;86886;-47
2022/05/09 12:31:40;;;;;;;;;;;17.10;44.40;;;;;;5007182;28;86873;-47
2022/05/09 12:34:07;;;;;;;;;;;17.10;45.30;;;;;;5006090;28;86841;-48
2022/05/09 12:36:34;;;;;;;;;;;17.20;44.60;;;;;;5007033;28;86802;-47
2022/05/09 12:39:13;;;;;;;;;;;17.20;45.40;;;;;;5009575;28;86829;-47
2022/05/09 12:41:41;;;;;;;;;;;17.20;44.40;;;;;;5007035;28;87150;-47
2022/05/09 12:44:17;;;;;;;;;;;17.20;45.00;;;;;;5007426;28;86688;-47
2022/05/09 12:47:06;;;;;;;;;;;17.30;44.50;;;;;;5006108;28;88646;-48
2022/05/09 12:49:35;;;;;;;;;;;17.30;44.50;;;;;;4998053;28;87099;-47
2022/05/09 12:52:01;;;;;;;;;;;17.30;44.90;;;;;;5006314;28;87765;-47
2022/05/09 12:54:28;;;;;;;;;;;17.30;42.90;;;;;;5006453;28;87846;-47
2022/05/09 12:56:59;;;;;;;;;;;17.30;44.80;;;;;;5005847;28;89502;-47
2022/05/09 12:59:26;;;;;;;;;;;17.30;45.30;;;;;;5006537;28;87058;-47
2022/05/09 13:01:52;;;;;;;;;;;17.40;44.00;;;;;;5008982;28;88629;-47
2022/05/09 13:04:39;;;;;;;;;;;17.40;44.70;;;;;;5006261;28;88237;-47
2022/05/09 13:07:07;;;;;;;;;;;17.50;44.30;;;;;;5005520;28;88474;-47
2022/05/09 13:09:35;;;;;;;;;;;17.50;44.60;;;;;;5007089;28;86128;-47
2022/05/09 13:12:06;;;;;;;;;;;17.50;44.00;;;;;;5005880;28;86836;-47
2022/05/09 13:14:36;;;;;;;;;;;17.50;44.40;;;;;;5005915;28;88498;-47
2022/05/09 13:17:04;;;;;;;;;;;17.60;42.60;;;;;;5005685;28;87889;-47
2022/05/09 13:19:30;;;;;;;;;;;17.60;43.60;;;;;;5006201;28;88043;-47
2022/05/09 13:21:57;;;;;;;;;;;17.60;44.00;;;;;;5005818;28;88639;-47
2022/05/09 13:24:29;;;;;;;;;;;17.60;43.70;;;;;;5008860;28;86970;-47
2022/05/09 13:26:56;;;;;;;;;;;17.60;42.60;;;;;;5005932;28;87455;-47
2022/05/09 13:29:27;;;;;;;;;;;17.70;42.10;;;;;;5006153;28;86831;-48
2022/05/09 13:31:55;;;;;;;;;;;17.70;42.20;;;;;;5006121;28;89313;-47
2022/05/09 13:34:21;;;;;;;;;;;17.70;42.30;;;;;;5006126;28;87734;-47
2022/05/09 13:36:46;;;;;;;;;;;17.70;42.50;;;;;;5006031;28;86881;-47
2022/05/09 13:39:26;;;;;;;;;;;17.70;42.70;;;;;;5005993;28;88154;-47
2022/05/09 13:41:53;;;;;;;;;;;17.70;42.50;;;;;;5004920;28;89447;-48
2022/05/09 13:44:21;;;;;;;;;;;17.80;42.60;;;;;;5009150;28;86858;-47
2022/05/09 13:46:49;;;;;;;;;;;17.80;41.40;;;;;;5005540;28;87749;-47
2022/05/09 13:49:16;;;;;;;;;;;17.80;41.40;;;;;;5005589;28;86784;-48
2022/05/09 13:51:49;;;;;;;;;;;17.80;41.00;;;;;;5005914;28;87318;-47
2022/05/09 13:54:20;;;;;;;;;;;17.90;42.30;;;;;;5005660;28;87485;-48
2022/05/09 13:56:45;;;;;;;;;;;17.90;40.90;;;;;;5005486;28;86872;-48
2022/05/09 13:59:13;;;;;;;;;;;18.00;41.10;;;;;;5006400;28;86113;-48
2022/05/09 14:01:41;;;;;;;;;;;18.00;41.40;;;;;;5005351;28;87693;-48
2022/05/09 14:04:07;;;;;;;;;;;18.00;42.30;;;;;;5005479;28;86971;-48
2022/05/09 14:06:35;;;;;;;;;;;18.10;42.50;;;;;;5006990;28;88087;-47
2022/05/09 14:09:14;;;;;;;;;;;18.10;42.30;;;;;;5005312;28;86821;-48
2022/05/09 14:11:51;;;;;;;;;;;18.10;41.60;;;;;;5005182;28;88038;-47
2022/05/09 14:14:33;;;;;;;;;;;18.10;42.50;;;;;;5005055;28;87491;-48
2022/05/09 14:17:00;;;;;;;;;;;18.20;41.60;;;;;;5005280;28;86877;-48
2022/05/09 14:19:28;;;;;;;;;;;18.10;41.00;;;;;;5005211;28;87034;-48
2022/05/09 14:22:01;;;;;;;;;;;18.10;41.70;;;;;;5004853;28;86947;-48
2022/05/09 14:24:28;;;;;;;;;;;18.10;41.50;;;;;;5006704;28;86096;-48
2022/05/09 14:29:47;;;;;;;;;;;18.10;41.00;;;;;;5007818;28;87016;-48
2022/05/09 14:32:14;;;;;;;;;;;18.10;40.90;;;;;;5007667;28;88118;-48
2022/05/09 14:34:46;;;;;;;;;;;18.10;41.00;;;;;;5007767;28;88384;-48
2022/05/09 14:37:33;;;;;;;;;;;18.10;41.00;;;;;;5008365;28;87102;-48
2022/05/09 14:39:59;;;;;;;;;;;18.10;41.10;;;;;;5008040;28;87945;-48
2022/05/09 14:42:25;;;;;;;;;;;18.20;40.30;;;;;;5007531;28;88757;-48